sensor_id;sensor_type;location;lat;lon;timestamp;temperature;humidity
24085;DHT22;12268;52.110;5.548;2023-06-26T01:41:06;24.60;99.90
24085;DHT22;12268;52.110;5.548;2023-06-26T01:46:30;24.40;99.90
24085;DHT22;12268;52.110;5.548;2023-06-26T01:49:17;24.50;99.90
24085;DHT22;12268;52.110;5.548;2023-06-26T01:51:54;24.50;99.90
24085;DHT22;12268;52.110;5.548;2023-06-26T01:54:23;24.50;99.90
24085;DHT22;12268;52.110;5.548;2023-06-26T01:56:50;24.50;99.90
24085;DHT22;12268;52.110;5.548;2023-06-26T01:59:19;24.70;99.90
24085;DHT22;12268;52.110;5.548;2023-06-26T02:01:46;24.60;99.90
24085;DHT22;12268;52.110;5.548;2023-06-26T02:04:12;24.70;99.90
24085;DHT22;12268;52.110;5.548;2023-06-26T02:06:37;24.40;99.90
24085;DHT22;12268;52.110;5.548;2023-06-26T02:09:03;24.40;99.90
24085;DHT22;12268;52.110;5.548;2023-06-26T02:11:29;24.20;99.90
24085;DHT22;12268;52.110;5.548;2023-06-26T02:13:54;24.40;99.90
24085;DHT22;12268;52.110;5.548;2023-06-26T02:16:20;24.30;99.90
24085;DHT22;12268;52.110;5.548;2023-06-26T02:18:45;24.40;99.90
24085;DHT22;12268;52.110;5.548;2023-06-26T02:21:11;24.20;99.90
24085;DHT22;12268;52.110;5.548;2023-06-26T02:23:37;24.20;99.90
24085;DHT22;12268;52.110;5.548;2023-06-26T02:26:03;24.10;99.90
24085;DHT22;12268;52.110;5.548;2023-06-26T02:28:28;24.10;99.90
24085;DHT22;12268;52.110;5.548;2023-06-26T02:30:56;24.10;99.90
24085;DHT22;12268;52.110;5.548;2023-06-26T02:33:22;24.10;99.90
24085;DHT22;12268;52.110;5.548;2023-06-26T02:35:47;23.90;99.90
24085;DHT22;12268;52.110;5.548;2023-06-26T02:38:16;24.00;99.90
24085;DHT22;12268;52.110;5.548;2023-06-26T02:40:42;23.80;99.90
24085;DHT22;12268;52.110;5.548;2023-06-26T02:43:07;23.80;99.90
24085;DHT22;12268;52.110;5.548;2023-06-26T02:45:33;23.70;99.90
24085;DHT22;12268;52.110;5.548;2023-06-26T02:47:58;23.90;99.90
24085;DHT22;12268;52.110;5.548;2023-06-26T02:50:24;23.90;99.90
24085;DHT22;12268;52.110;5.548;2023-06-26T02:52:49;24.00;99.90
24085;DHT22;12268;52.110;5.548;2023-06-26T02:55:18;24.10;99.90
24085;DHT22;12268;52.110;5.548;2023-06-26T02:57:44;23.90;99.90
24085;DHT22;12268;52.110;5.548;2023-06-26T03:00:10;23.70;99.90
24085;DHT22;12268;52.110;5.548;2023-06-26T03:02:36;23.50;99.90
24085;DHT22;12268;52.110;5.548;2023-06-26T03:05:02;23.40;99.90
24085;DHT22;12268;52.110;5.548;2023-06-26T03:07:28;23.30;99.90
24085;DHT22;12268;52.110;5.548;2023-06-26T03:09:53;23.30;99.90
24085;DHT22;12268;52.110;5.548;2023-06-26T03:12:19;23.50;99.90
24085;DHT22;12268;52.110;5.548;2023-06-26T03:14:44;23.60;99.90
24085;DHT22;12268;52.110;5.548;2023-06-26T03:17:10;23.40;99.90
24085;DHT22;12268;52.110;5.548;2023-06-26T03:19:35;23.20;99.90
24085;DHT22;12268;52.110;5.548;2023-06-26T03:22:01;23.20;99.90
24085;DHT22;12268;52.110;5.548;2023-06-26T03:24:27;23.00;99.90
24085;DHT22;12268;52.110;5.548;2023-06-26T03:26:52;23.00;99.90
24085;DHT22;12268;52.110;5.548;2023-06-26T03:29:18;23.10;99.90
24085;DHT22;12268;52.110;5.548;2023-06-26T03:31:43;23.00;99.90
24085;DHT22;12268;52.110;5.548;2023-06-26T03:34:09;23.10;99.90
24085;DHT22;12268;52.110;5.548;2023-06-26T03:36:34;23.10;99.90
24085;DHT22;12268;52.110;5.548;2023-06-26T03:39:00;23.20;99.90
24085;DHT22;12268;52.110;5.548;2023-06-26T03:41:26;23.10;99.90
24085;DHT22;12268;52.110;5.548;2023-06-26T03:43:52;23.00;99.90
24085;DHT22;12268;52.110;5.548;2023-06-26T03:46:17;23.10;99.90
24085;DHT22;12268;52.110;5.548;2023-06-26T03:48:43;23.30;99.90
24085;DHT22;12268;52.110;5.548;2023-06-26T03:51:08;23.30;99.90
24085;DHT22;12268;52.110;5.548;2023-06-26T03:53:34;23.30;99.90
24085;DHT22;12268;52.110;5.548;2023-06-26T03:56:00;23.10;99.90
24085;DHT22;12268;52.110;5.548;2023-06-26T03:58:25;23.20;99.90
24085;DHT22;12268;52.110;5.548;2023-06-26T04:00:51;23.10;99.90
24085;DHT22;12268;52.110;5.548;2023-06-26T04:03:17;22.90;99.90
24085;DHT22;12268;52.110;5.548;2023-06-26T04:05:42;23.20;99.90
24085;DHT22;12268;52.110;5.548;2023-06-26T04:08:08;23.30;99.90
24085;DHT22;12268;52.110;5.548;2023-06-26T04:10:34;23.20;99.90
24085;DHT22;12268;52.110;5.548;2023-06-26T04:13:01;23.10;99.90
24085;DHT22;12268;52.110;5.548;2023-06-26T04:15:27;23.10;99.90
24085;DHT22;12268;52.110;5.548;2023-06-26T04:17:52;23.10;99.90
24085;DHT22;12268;52.110;5.548;2023-06-26T04:20:18;23.10;99.90
24085;DHT22;12268;52.110;5.548;2023-06-26T04:22:43;23.30;99.90
24085;DHT22;12268;52.110;5.548;2023-06-26T04:25:09;23.20;99.90
24085;DHT22;12268;52.110;5.548;2023-06-26T04:27:37;23.20;99.90
24085;DHT22;12268;52.110;5.548;2023-06-26T04:30:02;23.10;99.90
24085;DHT22;12268;52.110;5.548;2023-06-26T04:32:28;22.90;99.90
24085;DHT22;12268;52.110;5.548;2023-06-26T04:34:54;22.80;99.90
24085;DHT22;12268;52.110;5.548;2023-06-26T04:37:19;22.90;99.90
24085;DHT22;12268;52.110;5.548;2023-06-26T04:39:45;23.00;99.90
24085;DHT22;12268;52.110;5.548;2023-06-26T04:42:11;22.80;99.90
24085;DHT22;12268;52.110;5.548;2023-06-26T04:44:37;23.00;99.90
24085;DHT22;12268;52.110;5.548;2023-06-26T04:47:03;22.80;99.90
24085;DHT22;12268;52.110;5.548;2023-06-26T04:49:29;22.80;99.90
24085;DHT22;12268;52.110;5.548;2023-06-26T04:51:56;22.90;99.90
24085;DHT22;12268;52.110;5.548;2023-06-26T04:54:22;22.90;99.90
24085;DHT22;12268;52.110;5.548;2023-06-26T04:56:48;22.80;99.90
24085;DHT22;12268;52.110;5.548;2023-06-26T04:59:14;22.80;99.90
24085;DHT22;12268;52.110;5.548;2023-06-26T05:01:40;22.90;99.90
24085;DHT22;12268;52.110;5.548;2023-06-26T05:04:06;23.10;99.90
24085;DHT22;12268;52.110;5.548;2023-06-26T05:06:31;23.10;99.90
24085;DHT22;12268;52.110;5.548;2023-06-26T05:08:57;23.00;99.90
24085;DHT22;12268;52.110;5.548;2023-06-26T05:11:24;22.70;99.90
24085;DHT22;12268;52.110;5.548;2023-06-26T05:13:50;22.60;99.90
24085;DHT22;12268;52.110;5.548;2023-06-26T05:16:15;22.60;99.90
24085;DHT22;12268;52.110;5.548;2023-06-26T05:18:41;22.50;99.90
24085;DHT22;12268;52.110;5.548;2023-06-26T05:21:07;22.50;99.90
24085;DHT22;12268;52.110;5.548;2023-06-26T05:23:33;22.70;99.90
24085;DHT22;12268;52.110;5.548;2023-06-26T05:26:01;22.50;99.90
24085;DHT22;12268;52.110;5.548;2023-06-26T05:28:27;22.40;99.90
24085;DHT22;12268;52.110;5.548;2023-06-26T05:30:53;22.40;99.90
24085;DHT22;12268;52.110;5.548;2023-06-26T05:33:23;22.60;99.90
24085;DHT22;12268;52.110;5.548;2023-06-26T05:35:49;22.70;99.90
24085;DHT22;12268;52.110;5.548;2023-06-26T05:38:17;22.70;99.90
24085;DHT22;12268;52.110;5.548;2023-06-26T05:40:42;22.80;99.90
24085;DHT22;12268;52.110;5.548;2023-06-26T05:43:08;22.50;99.90
24085;DHT22;12268;52.110;5.548;2023-06-26T05:45:34;22.70;99.90
24085;DHT22;12268;52.110;5.548;2023-06-26T05:47:59;22.70;99.90
24085;DHT22;12268;52.110;5.548;2023-06-26T05:50:25;22.80;99.90
24085;DHT22;12268;52.110;5.548;2023-06-26T05:52:52;22.80;99.90
24085;DHT22;12268;52.110;5.548;2023-06-26T05:55:18;22.80;99.90
24085;DHT22;12268;52.110;5.548;2023-06-26T05:57:45;22.90;99.90
24085;DHT22;12268;52.110;5.548;2023-06-26T06:00:11;22.90;99.90
24085;DHT22;12268;52.110;5.548;2023-06-26T06:02:38;23.00;99.90
24085;DHT22;12268;52.110;5.548;2023-06-26T06:05:04;22.90;99.90
24085;DHT22;12268;52.110;5.548;2023-06-26T06:07:31;22.90;99.90
24085;DHT22;12268;52.110;5.548;2023-06-26T06:09:57;23.30;99.90
24085;DHT22;12268;52.110;5.548;2023-06-26T06:12:23;23.40;99.90
24085;DHT22;12268;52.110;5.548;2023-06-26T06:14:48;23.60;99.90
24085;DHT22;12268;52.110;5.548;2023-06-26T06:17:14;23.80;99.90
24085;DHT22;12268;52.110;5.548;2023-06-26T06:19:39;23.90;99.90
24085;DHT22;12268;52.110;5.548;2023-06-26T06:22:05;23.50;99.90
24085;DHT22;12268;52.110;5.548;2023-06-26T06:24:30;23.30;99.90
24085;DHT22;12268;52.110;5.548;2023-06-26T06:26:56;23.40;99.90
24085;DHT22;12268;52.110;5.548;2023-06-26T06:29:21;23.20;99.90
24085;DHT22;12268;52.110;5.548;2023-06-26T06:31:47;23.40;99.90
24085;DHT22;12268;52.110;5.548;2023-06-26T06:34:12;23.60;99.90
24085;DHT22;12268;52.110;5.548;2023-06-26T06:36:38;23.60;99.90
24085;DHT22;12268;52.110;5.548;2023-06-26T06:39:04;23.70;99.90
24085;DHT22;12268;52.110;5.548;2023-06-26T06:41:29;23.80;99.90
24085;DHT22;12268;52.110;5.548;2023-06-26T06:43:55;23.70;99.90
24085;DHT22;12268;52.110;5.548;2023-06-26T06:46:20;23.90;99.90
24085;DHT22;12268;52.110;5.548;2023-06-26T06:48:46;24.10;99.90
24085;DHT22;12268;52.110;5.548;2023-06-26T06:51:12;24.10;99.90
24085;DHT22;12268;52.110;5.548;2023-06-26T06:53:38;24.20;99.90
24085;DHT22;12268;52.110;5.548;2023-06-26T06:56:03;24.40;99.90
24085;DHT22;12268;52.110;5.548;2023-06-26T06:58:29;24.00;99.90
24085;DHT22;12268;52.110;5.548;2023-06-26T07:00:56;24.10;99.90
24085;DHT22;12268;52.110;5.548;2023-06-26T07:03:21;24.10;99.90
24085;DHT22;12268;52.110;5.548;2023-06-26T07:05:47;24.40;99.90
24085;DHT22;12268;52.110;5.548;2023-06-26T07:08:13;24.50;99.90
24085;DHT22;12268;52.110;5.548;2023-06-26T07:10:39;24.50;99.90
24085;DHT22;12268;52.110;5.548;2023-06-26T07:13:05;24.50;99.90
24085;DHT22;12268;52.110;5.548;2023-06-26T07:15:31;24.40;99.90
24085;DHT22;12268;52.110;5.548;2023-06-26T07:17:56;24.60;99.90
24085;DHT22;12268;52.110;5.548;2023-06-26T07:20:22;24.70;99.90
24085;DHT22;12268;52.110;5.548;2023-06-26T07:22:48;25.10;99.90
24085;DHT22;12268;52.110;5.548;2023-06-26T07:25:13;25.30;99.90
24085;DHT22;12268;52.110;5.548;2023-06-26T07:27:40;25.30;99.90
24085;DHT22;12268;52.110;5.548;2023-06-26T07:30:07;24.80;99.90
24085;DHT22;12268;52.110;5.548;2023-06-26T07:32:35;24.50;99.90
24085;DHT22;12268;52.110;5.548;2023-06-26T07:35:01;24.70;99.90
24085;DHT22;12268;52.110;5.548;2023-06-26T07:37:27;24.50;99.90
24085;DHT22;12268;52.110;5.548;2023-06-26T07:39:52;24.60;99.90
24085;DHT22;12268;52.110;5.548;2023-06-26T07:42:18;25.00;99.90
24085;DHT22;12268;52.110;5.548;2023-06-26T07:44:43;25.10;99.90
24085;DHT22;12268;52.110;5.548;2023-06-26T07:47:09;25.40;99.90
24085;DHT22;12268;52.110;5.548;2023-06-26T07:49:35;25.30;99.90
24085;DHT22;12268;52.110;5.548;2023-06-26T07:52:01;25.50;99.90
24085;DHT22;12268;52.110;5.548;2023-06-26T07:54:26;25.20;99.90
24085;DHT22;12268;52.110;5.548;2023-06-26T07:56:56;25.10;99.90
24085;DHT22;12268;52.110;5.548;2023-06-26T07:59:23;25.20;99.90
24085;DHT22;12268;52.110;5.548;2023-06-26T08:01:53;25.80;99.90
24085;DHT22;12268;52.110;5.548;2023-06-26T08:04:20;26.40;99.90
24085;DHT22;12268;52.110;5.548;2023-06-26T08:17:07;26.20;99.90
24085;DHT22;12268;52.110;5.548;2023-06-26T08:19:33;26.20;99.90
24085;DHT22;12268;52.110;5.548;2023-06-26T08:21:58;26.30;99.90
24085;DHT22;12268;52.110;5.548;2023-06-26T08:24:24;26.10;99.90
24085;DHT22;12268;52.110;5.548;2023-06-26T08:26:49;26.40;99.90
24085;DHT22;12268;52.110;5.548;2023-06-26T08:29:15;26.50;99.90
24085;DHT22;12268;52.110;5.548;2023-06-26T08:31:42;26.70;99.90
24085;DHT22;12268;52.110;5.548;2023-06-26T08:34:08;26.80;99.90
24085;DHT22;12268;52.110;5.548;2023-06-26T08:36:34;27.00;99.90
24085;DHT22;12268;52.110;5.548;2023-06-26T08:39:00;27.70;99.90
24085;DHT22;12268;52.110;5.548;2023-06-26T08:41:25;28.20;99.90
24085;DHT22;12268;52.110;5.548;2023-06-26T08:43:51;29.00;99.90
24085;DHT22;12268;52.110;5.548;2023-06-26T08:46:18;29.40;99.90
24085;DHT22;12268;52.110;5.548;2023-06-26T08:48:56;29.20;99.90
24085;DHT22;12268;52.110;5.548;2023-06-26T08:51:24;28.40;99.90
24085;DHT22;12268;52.110;5.548;2023-06-26T08:53:56;29.00;99.90
24085;DHT22;12268;52.110;5.548;2023-06-26T08:56:22;29.40;99.90
24085;DHT22;12268;52.110;5.548;2023-06-26T08:58:49;29.30;99.90
24085;DHT22;12268;52.110;5.548;2023-06-26T09:01:15;28.50;98.60
24085;DHT22;12268;52.110;5.548;2023-06-26T09:03:40;27.90;99.90
24085;DHT22;12268;52.110;5.548;2023-06-26T09:06:09;27.20;99.90
24085;DHT22;12268;52.110;5.548;2023-06-26T09:08:35;28.30;99.90
24085;DHT22;12268;52.110;5.548;2023-06-26T09:11:00;29.20;99.90
24085;DHT22;12268;52.110;5.548;2023-06-26T09:13:29;29.60;99.10
24085;DHT22;12268;52.110;5.548;2023-06-26T09:15:55;30.00;99.90
24085;DHT22;12268;52.110;5.548;2023-06-26T09:18:21;31.10;96.80
24085;DHT22;12268;52.110;5.548;2023-06-26T09:20:48;30.70;94.20
24085;DHT22;12268;52.110;5.548;2023-06-26T09:23:13;29.80;92.80
24085;DHT22;12268;52.110;5.548;2023-06-26T09:25:40;28.80;95.80
24085;DHT22;12268;52.110;5.548;2023-06-26T09:28:06;29.70;97.20
24085;DHT22;12268;52.110;5.548;2023-06-26T09:30:33;30.10;95.00
24085;DHT22;12268;52.110;5.548;2023-06-26T09:33:19;31.30;95.90
24085;DHT22;12268;52.110;5.548;2023-06-26T09:35:45;30.90;93.40
24085;DHT22;12268;52.110;5.548;2023-06-26T09:38:12;30.40;95.10
24085;DHT22;12268;52.110;5.548;2023-06-26T09:40:38;31.00;95.20
24085;DHT22;12268;52.110;5.548;2023-06-26T09:43:09;31.40;92.70
24085;DHT22;12268;52.110;5.548;2023-06-26T09:45:39;30.40;93.10
24085;DHT22;12268;52.110;5.548;2023-06-26T09:48:06;30.40;93.30
24085;DHT22;12268;52.110;5.548;2023-06-26T09:50:34;30.00;93.30
24085;DHT22;12268;52.110;5.548;2023-06-26T09:53:10;30.60;94.40
24085;DHT22;12268;52.110;5.548;2023-06-26T09:55:37;31.80;93.20
24085;DHT22;12268;52.110;5.548;2023-06-26T09:58:03;32.60;92.10
24085;DHT22;12268;52.110;5.548;2023-06-26T10:00:30;34.40;91.20
24085;DHT22;12268;52.110;5.548;2023-06-26T10:02:56;34.50;89.50
24085;DHT22;12268;52.110;5.548;2023-06-26T10:05:21;34.60;85.70
24085;DHT22;12268;52.110;5.548;2023-06-26T10:07:47;33.70;84.10
24085;DHT22;12268;52.110;5.548;2023-06-26T10:10:13;33.70;88.30
24085;DHT22;12268;52.110;5.548;2023-06-26T10:12:40;34.10;87.20
24085;DHT22;12268;52.110;5.548;2023-06-26T10:15:06;33.50;86.10
24085;DHT22;12268;52.110;5.548;2023-06-26T10:17:38;33.90;85.20
24085;DHT22;12268;52.110;5.548;2023-06-26T10:20:05;33.50;81.20
24085;DHT22;12268;52.110;5.548;2023-06-26T10:22:41;33.20;81.00
24085;DHT22;12268;52.110;5.548;2023-06-26T10:25:09;32.80;80.60
24085;DHT22;12268;52.110;5.548;2023-06-26T10:27:38;32.20;81.40
24085;DHT22;12268;52.110;5.548;2023-06-26T10:30:11;30.90;87.10
24085;DHT22;12268;52.110;5.548;2023-06-26T10:32:37;30.90;89.60
24085;DHT22;12268;52.110;5.548;2023-06-26T10:35:06;30.90;88.10
24085;DHT22;12268;52.110;5.548;2023-06-26T10:37:42;30.80;85.40
24085;DHT22;12268;52.110;5.548;2023-06-26T10:40:09;31.10;83.30
24085;DHT22;12268;52.110;5.548;2023-06-26T10:42:37;30.90;84.40
24085;DHT22;12268;52.110;5.548;2023-06-26T10:45:29;31.30;83.80
24085;DHT22;12268;52.110;5.548;2023-06-26T10:47:57;32.10;86.30
24085;DHT22;12268;52.110;5.548;2023-06-26T10:50:30;32.80;79.10
24085;DHT22;12268;52.110;5.548;2023-06-26T11:01:22;33.10;78.00
24085;DHT22;12268;52.110;5.548;2023-06-26T11:04:04;32.40;78.00
24085;DHT22;12268;52.110;5.548;2023-06-26T11:06:30;34.00;80.20
24085;DHT22;12268;52.110;5.548;2023-06-26T11:09:17;35.40;80.00
24085;DHT22;12268;52.110;5.548;2023-06-26T11:14:21;33.10;71.60
24085;DHT22;12268;52.110;5.548;2023-06-26T11:16:47;32.70;74.50
24085;DHT22;12268;52.110;5.548;2023-06-26T11:19:15;32.20;72.80
24085;DHT22;12268;52.110;5.548;2023-06-26T11:21:41;33.00;73.20
24085;DHT22;12268;52.110;5.548;2023-06-26T11:24:08;33.10;70.30
24085;DHT22;12268;52.110;5.548;2023-06-26T11:26:42;33.30;72.80
24085;DHT22;12268;52.110;5.548;2023-06-26T11:29:08;33.80;73.40
24085;DHT22;12268;52.110;5.548;2023-06-26T11:31:36;34.20;66.90
24085;DHT22;12268;52.110;5.548;2023-06-26T11:34:04;34.80;67.50
24085;DHT22;12268;52.110;5.548;2023-06-26T11:36:30;35.10;68.40
24085;DHT22;12268;52.110;5.548;2023-06-26T11:38:58;34.80;68.70
24085;DHT22;12268;52.110;5.548;2023-06-26T11:41:25;35.40;68.00
24085;DHT22;12268;52.110;5.548;2023-06-26T11:43:51;35.70;65.80
24085;DHT22;12268;52.110;5.548;2023-06-26T11:46:18;34.80;64.20
24085;DHT22;12268;52.110;5.548;2023-06-26T11:48:44;34.50;71.70
24085;DHT22;12268;52.110;5.548;2023-06-26T11:51:12;34.80;67.80
24085;DHT22;12268;52.110;5.548;2023-06-26T11:53:43;35.30;66.60
24085;DHT22;12268;52.110;5.548;2023-06-26T11:56:15;35.20;67.70
24085;DHT22;12268;52.110;5.548;2023-06-26T11:59:06;35.00;69.70
24085;DHT22;12268;52.110;5.548;2023-06-26T12:01:36;35.30;66.70
24085;DHT22;12268;52.110;5.548;2023-06-26T12:04:07;35.40;67.60
24085;DHT22;12268;52.110;5.548;2023-06-26T12:06:37;35.10;64.20
24085;DHT22;12268;52.110;5.548;2023-06-26T12:09:06;35.60;66.10
24085;DHT22;12268;52.110;5.548;2023-06-26T12:11:33;35.70;65.10
24085;DHT22;12268;52.110;5.548;2023-06-26T12:14:00;35.50;65.80
24085;DHT22;12268;52.110;5.548;2023-06-26T12:16:28;35.30;62.10
24085;DHT22;12268;52.110;5.548;2023-06-26T12:18:58;35.00;63.30
24085;DHT22;12268;52.110;5.548;2023-06-26T12:24:02;35.40;59.80
24085;DHT22;12268;52.110;5.548;2023-06-26T12:26:28;36.00;60.00
24085;DHT22;12268;52.110;5.548;2023-06-26T12:29:08;35.30;60.20
24085;DHT22;12268;52.110;5.548;2023-06-26T12:31:35;35.10;60.80
24085;DHT22;12268;52.110;5.548;2023-06-26T12:34:01;35.00;59.20
24085;DHT22;12268;52.110;5.548;2023-06-26T12:36:27;34.50;59.30
24085;DHT22;12268;52.110;5.548;2023-06-26T12:38:53;33.20;58.30
24085;DHT22;12268;52.110;5.548;2023-06-26T12:41:20;32.20;60.80
24085;DHT22;12268;52.110;5.548;2023-06-26T12:43:46;32.80;63.40
24085;DHT22;12268;52.110;5.548;2023-06-26T12:46:12;33.30;63.10
24085;DHT22;12268;52.110;5.548;2023-06-26T12:48:43;34.00;64.90
24085;DHT22;12268;52.110;5.548;2023-06-26T12:51:11;34.00;63.30
24085;DHT22;12268;52.110;5.548;2023-06-26T12:53:38;33.70;60.20
24085;DHT22;12268;52.110;5.548;2023-06-26T12:56:07;32.90;62.60
24085;DHT22;12268;52.110;5.548;2023-06-26T12:58:34;32.30;64.00
24085;DHT22;12268;52.110;5.548;2023-06-26T13:01:02;32.40;60.40
24085;DHT22;12268;52.110;5.548;2023-06-26T13:03:28;33.20;63.90
24085;DHT22;12268;52.110;5.548;2023-06-26T13:05:53;33.80;65.50
24085;DHT22;12268;52.110;5.548;2023-06-26T13:08:19;33.50;66.30
24085;DHT22;12268;52.110;5.548;2023-06-26T13:10:45;33.60;63.30
24085;DHT22;12268;52.110;5.548;2023-06-26T13:13:11;33.20;62.30
24085;DHT22;12268;52.110;5.548;2023-06-26T13:15:37;33.60;65.10
24085;DHT22;12268;52.110;5.548;2023-06-26T13:18:02;33.60;63.40
24085;DHT22;12268;52.110;5.548;2023-06-26T13:20:28;33.80;63.30
24085;DHT22;12268;52.110;5.548;2023-06-26T13:22:54;33.80;62.20
24085;DHT22;12268;52.110;5.548;2023-06-26T13:25:20;33.20;63.50
24085;DHT22;12268;52.110;5.548;2023-06-26T13:27:46;32.50;63.70
24085;DHT22;12268;52.110;5.548;2023-06-26T13:30:12;31.60;64.00
24085;DHT22;12268;52.110;5.548;2023-06-26T13:32:38;31.60;70.20
24085;DHT22;12268;52.110;5.548;2023-06-26T13:35:03;31.60;67.80
24085;DHT22;12268;52.110;5.548;2023-06-26T13:37:30;31.40;61.60
24085;DHT22;12268;52.110;5.548;2023-06-26T13:39:56;31.40;65.40
24085;DHT22;12268;52.110;5.548;2023-06-26T13:42:23;31.10;64.20
24085;DHT22;12268;52.110;5.548;2023-06-26T13:44:48;30.60;67.90
24085;DHT22;12268;52.110;5.548;2023-06-26T13:47:15;30.70;68.60
24085;DHT22;12268;52.110;5.548;2023-06-26T13:49:40;30.20;67.20
24085;DHT22;12268;52.110;5.548;2023-06-26T13:52:06;30.00;66.90
24085;DHT22;12268;52.110;5.548;2023-06-26T13:54:36;29.90;69.30
24085;DHT22;12268;52.110;5.548;2023-06-26T13:57:05;30.20;67.90
24085;DHT22;12268;52.110;5.548;2023-06-26T13:59:31;30.20;70.40
24085;DHT22;12268;52.110;5.548;2023-06-26T14:01:56;29.80;69.10
24085;DHT22;12268;52.110;5.548;2023-06-26T14:04:22;29.70;69.90
24085;DHT22;12268;52.110;5.548;2023-06-26T14:06:48;29.30;71.40
24085;DHT22;12268;52.110;5.548;2023-06-26T14:09:13;29.00;69.10
24085;DHT22;12268;52.110;5.548;2023-06-26T14:11:39;28.50;70.50
24085;DHT22;12268;52.110;5.548;2023-06-26T14:14:05;27.90;71.60
24085;DHT22;12268;52.110;5.548;2023-06-26T14:16:30;27.90;74.80
24085;DHT22;12268;52.110;5.548;2023-06-26T14:18:57;28.30;75.80
24085;DHT22;12268;52.110;5.548;2023-06-26T14:21:22;28.60;70.90
24085;DHT22;12268;52.110;5.548;2023-06-26T14:23:48;29.00;74.60
24085;DHT22;12268;52.110;5.548;2023-06-26T14:26:14;28.90;70.50
24085;DHT22;12268;52.110;5.548;2023-06-26T14:28:39;28.90;70.00
24085;DHT22;12268;52.110;5.548;2023-06-26T14:31:05;29.00;73.60
24085;DHT22;12268;52.110;5.548;2023-06-26T14:33:31;29.20;71.30
24085;DHT22;12268;52.110;5.548;2023-06-26T14:35:56;29.30;71.50
24085;DHT22;12268;52.110;5.548;2023-06-26T14:38:22;29.30;70.00
24085;DHT22;12268;52.110;5.548;2023-06-26T14:40:47;29.00;67.70
24085;DHT22;12268;52.110;5.548;2023-06-26T14:43:13;29.10;73.10
24085;DHT22;12268;52.110;5.548;2023-06-26T14:45:39;29.30;72.90
24085;DHT22;12268;52.110;5.548;2023-06-26T14:48:04;29.00;70.10
24085;DHT22;12268;52.110;5.548;2023-06-26T14:50:30;28.80;74.40
24085;DHT22;12268;52.110;5.548;2023-06-26T14:52:55;28.80;75.10
24085;DHT22;12268;52.110;5.548;2023-06-26T14:55:21;29.10;73.60
24085;DHT22;12268;52.110;5.548;2023-06-26T14:57:46;28.90;71.70
24085;DHT22;12268;52.110;5.548;2023-06-26T15:00:12;28.80;71.10
24085;DHT22;12268;52.110;5.548;2023-06-26T15:02:38;28.90;71.50
24085;DHT22;12268;52.110;5.548;2023-06-26T15:05:04;29.10;72.40
24085;DHT22;12268;52.110;5.548;2023-06-26T15:07:29;28.90;70.90
24085;DHT22;12268;52.110;5.548;2023-06-26T15:09:55;28.60;71.00
24085;DHT22;12268;52.110;5.548;2023-06-26T15:12:21;28.00;72.90
24085;DHT22;12268;52.110;5.548;2023-06-26T15:14:48;27.80;73.20
24085;DHT22;12268;52.110;5.548;2023-06-26T15:17:14;27.40;74.50
24085;DHT22;12268;52.110;5.548;2023-06-26T15:19:39;26.90;75.90
24085;DHT22;12268;52.110;5.548;2023-06-26T15:22:06;26.90;76.80
24085;DHT22;12268;52.110;5.548;2023-06-26T15:24:32;27.00;78.00
24085;DHT22;12268;52.110;5.548;2023-06-26T15:26:57;27.20;79.30
24085;DHT22;12268;52.110;5.548;2023-06-26T15:29:23;27.30;75.90
24085;DHT22;12268;52.110;5.548;2023-06-26T15:31:48;27.70;73.70
24085;DHT22;12268;52.110;5.548;2023-06-26T15:34:14;28.20;73.80
24085;DHT22;12268;52.110;5.548;2023-06-26T15:36:39;28.40;77.20
24085;DHT22;12268;52.110;5.548;2023-06-26T15:39:05;28.50;76.70
24085;DHT22;12268;52.110;5.548;2023-06-26T15:41:31;28.70;74.80
24085;DHT22;12268;52.110;5.548;2023-06-26T15:43:56;28.40;76.70
24085;DHT22;12268;52.110;5.548;2023-06-26T15:46:22;28.80;75.70
24085;DHT22;12268;52.110;5.548;2023-06-26T15:48:47;29.00;74.20
24085;DHT22;12268;52.110;5.548;2023-06-26T15:51:13;28.50;72.30
24085;DHT22;12268;52.110;5.548;2023-06-26T15:53:43;28.00;76.10
24085;DHT22;12268;52.110;5.548;2023-06-26T15:56:10;27.90;73.80
24085;DHT22;12268;52.110;5.548;2023-06-26T15:58:36;27.80;74.60
24085;DHT22;12268;52.110;5.548;2023-06-26T16:01:10;28.00;76.70
24085;DHT22;12268;52.110;5.548;2023-06-26T16:03:37;27.60;73.90
24085;DHT22;12268;52.110;5.548;2023-06-26T16:06:03;27.30;72.60
24085;DHT22;12268;52.110;5.548;2023-06-26T16:08:28;27.20;74.20
24085;DHT22;12268;52.110;5.548;2023-06-26T16:10:54;26.80;77.70
24085;DHT22;12268;52.110;5.548;2023-06-26T16:13:20;26.90;78.40
24085;DHT22;12268;52.110;5.548;2023-06-26T16:15:47;26.60;76.00
24085;DHT22;12268;52.110;5.548;2023-06-26T16:18:14;26.50;77.80
24085;DHT22;12268;52.110;5.548;2023-06-26T16:20:39;26.50;76.80
24085;DHT22;12268;52.110;5.548;2023-06-26T16:23:05;26.50;81.10
24085;DHT22;12268;52.110;5.548;2023-06-26T16:25:31;26.70;78.00
24085;DHT22;12268;52.110;5.548;2023-06-26T16:27:56;26.50;76.20
24085;DHT22;12268;52.110;5.548;2023-06-26T16:30:22;26.60;77.90
24085;DHT22;12268;52.110;5.548;2023-06-26T16:32:48;26.90;79.40
24085;DHT22;12268;52.110;5.548;2023-06-26T16:35:14;26.80;76.40
24085;DHT22;12268;52.110;5.548;2023-06-26T16:37:39;26.70;76.30
24085;DHT22;12268;52.110;5.548;2023-06-26T16:40:05;26.60;76.00
24085;DHT22;12268;52.110;5.548;2023-06-26T16:42:31;25.90;78.30
24085;DHT22;12268;52.110;5.548;2023-06-26T16:44:56;26.00;79.20
24085;DHT22;12268;52.110;5.548;2023-06-26T16:47:22;26.00;76.60
24085;DHT22;12268;52.110;5.548;2023-06-26T16:49:48;25.80;76.50
24085;DHT22;12268;52.110;5.548;2023-06-26T16:52:13;25.30;76.10
24085;DHT22;12268;52.110;5.548;2023-06-26T16:54:39;25.30;76.70
24085;DHT22;12268;52.110;5.548;2023-06-26T16:57:04;25.20;77.90
24085;DHT22;12268;52.110;5.548;2023-06-26T16:59:30;25.10;79.60
24085;DHT22;12268;52.110;5.548;2023-06-26T17:01:56;24.90;78.50
24085;DHT22;12268;52.110;5.548;2023-06-26T17:04:26;25.00;78.90
24085;DHT22;12268;52.110;5.548;2023-06-26T17:06:52;25.20;79.60
24085;DHT22;12268;52.110;5.548;2023-06-26T17:09:18;25.60;80.10
24085;DHT22;12268;52.110;5.548;2023-06-26T17:11:43;25.80;77.40
24085;DHT22;12268;52.110;5.548;2023-06-26T17:14:09;25.70;79.20
24085;DHT22;12268;52.110;5.548;2023-06-26T17:16:34;26.00;77.70
24085;DHT22;12268;52.110;5.548;2023-06-26T17:19:00;25.90;78.20
24085;DHT22;12268;52.110;5.548;2023-06-26T17:21:26;26.00;78.70
24085;DHT22;12268;52.110;5.548;2023-06-26T17:23:51;26.00;80.40
24085;DHT22;12268;52.110;5.548;2023-06-26T17:26:17;25.80;81.90
24085;DHT22;12268;52.110;5.548;2023-06-26T17:28:44;26.00;78.70
24085;DHT22;12268;52.110;5.548;2023-06-26T17:31:10;25.90;77.80
24085;DHT22;12268;52.110;5.548;2023-06-26T17:33:35;25.40;79.40